Hinsdale, Montana
Current Conditions -  °F | °C
As of 5:53 AM on Friday 19 Dec 2014 (Local Time) from KGGW Reporting Station
Haze Haze  
Wind Chill: 21°   Ceiling: 11000
Heat Index: 21°   Visibility: 6mi
Dew Point: 18°   Wind: 3mph
Humidity: 88%   Direction: 360°N
Pressure: 29.9"   Gusts: NA
Location:  48.39°N, 107.09°W
Report Text: KGGW 191253Z AUTO 36003KT 6SM BR SCT090 OVC110 M06/M08 A2990 RMK AO2 SLP162 T10611078
Loading
Personal Weather Stations






























Interactive Weather Map New forecast layout! Learn more

10-Day Weather Forecast

Advertisements
Track Severe Weather on mobile